Trebujena, Spain
Current Conditions -  °F | °C
As of 1:00 PM on Sunday 25 Jan 2015 (Local Time) from LEJR Reporting Station
Clear Clear  
Wind Chill: 59°   Ceiling: Unl
Heat Index: 59°   Visibility: 6mi
Dew Point: 41°   Wind: 18mph
Humidity: 51%   Direction: 20°NNE
Pressure: 30.3"   Gusts: NA
Location:  36.87°N, 6.18°W
Report Text: LEJR 251200Z 02016KT CAVOK 15/05 Q1026
Loading
Personal Weather Stations






























Interactive Weather Map New forecast layout! Learn more

10-Day Weather Forecast

Advertisements
Track Severe Weather on mobile